EA3GYL La Torregassa ES current weather conditions

sailwx.info

Wind from 241 at 3 knots gusting 6

Air temperature 24.4° C
Dewpoint 14.2° C

Last reported at 2014-Aug-23 10:50 UTC.
Time now 2014-Aug-23 11:30 UTC

Location: N 41°17' E 001°31'.
View on Google Maps.

See reports from other nearby stations

  
Tides and Currents Weather Stations Pressure Air Temp Water Temp Dewpoint Dewpoint Depression Visibility Wind Speed Wind Dir Waves Ship Positions
date/time (UTC)wind fromknots sea level pressurealtimeterstation pressurevisibilityair tempwater tempwave heightnotes
2014-Aug-23 10:50 241 3 gusting 6 24.4
2014-Aug-23 10:40 231 4 gusting 8 23.9
2014-Aug-23 10:10 226 3 gusting 6 23.3
2014-Aug-23 10:00 232 3 gusting 7 22.8
2014-Aug-23 09:40 193 2 gusting 6 22.8
2014-Aug-23 09:30 216 2 gusting 6 22.8
2014-Aug-23 09:10 238 1 gusting 4 21.7
2014-Aug-23 09:00 237 2 gusting 5 21.7
2014-Aug-23 08:50 242 1 gusting 6 21.7
2014-Aug-23 08:30 287 2 gusting 4 21.1
2014-Aug-22 22:50 17.8
2014-Aug-22 22:40 17.8
2014-Aug-22 22:30 034 0 gusting 5 17.8
2014-Aug-22 22:20 062 1 gusting 4 17.8
2014-Aug-22 22:10 028 0 gusting 4 17.8
2014-Aug-22 22:00 17.8
2014-Aug-22 21:50 039 0 gusting 4 17.8
2014-Aug-22 21:40 045 2 gusting 5 17.8
2014-Aug-22 21:30 047 0 gusting 4 17.8
2014-Aug-22 21:20 065 0 gusting 3 17.8
2014-Aug-22 21:10 17.8
2014-Aug-22 21:00 104 0 gusting 1 17.8
2014-Aug-22 20:50 034 0 gusting 5 17.8
2014-Aug-22 20:40 035 0 gusting 6 17.8
2014-Aug-22 20:30 134 0 gusting 1 17.8
2014-Aug-22 20:20 17.8
2014-Aug-22 20:10 036 0 gusting 3 17.8
2014-Aug-22 20:00 045 1 gusting 4 17.8
2014-Aug-22 19:50 063 1 gusting 6 17.8
2014-Aug-22 19:40 090 1 gusting 3 18.3
2014-Aug-22 19:30 024 3 gusting 11 18.3
2014-Aug-22 19:20 357 7 gusting 15 18.9
2014-Aug-22 19:10 031 5 gusting 14 20.6
2014-Aug-22 19:00 055 6 gusting 14 20.6
2014-Aug-22 18:50 061 6 gusting 12 20.6
2014-Aug-22 18:40 056 5 gusting 9 20.6
2014-Aug-22 18:30 050 4 gusting 9 20.6
2014-Aug-22 18:20 056 3 gusting 7 21.1
2014-Aug-22 18:10 061 2 gusting 6 21.1
2014-Aug-22 18:00 064 2 gusting 6 21.1
2014-Aug-22 17:50 082 2 gusting 6 21.1
2014-Aug-22 17:40 080 1 gusting 3 21.7
2014-Aug-22 17:30 103 1 gusting 3 21.7
2014-Aug-22 17:20 094 1 gusting 4 21.7
2014-Aug-22 17:10 103 1 gusting 5 21.7
2014-Aug-22 17:00 097 0 gusting 4 22.2
2014-Aug-22 16:50 099 0 gusting 3 22.2
2014-Aug-22 16:40 137 0 gusting 2 22.2
2014-Aug-22 16:30 130 1 gusting 4 22.2
2014-Aug-22 16:20 130 2 gusting 6 22.2
2014-Aug-22 16:10 122 1 gusting 5 22.2
2014-Aug-22 16:00 108 2 gusting 6 22.2
2014-Aug-22 15:50 114 0 gusting 4 22.2
2014-Aug-22 15:40 109 2 gusting 6 22.2
2014-Aug-22 15:30 116 3 gusting 6 22.2
2014-Aug-22 15:20 110 2 gusting 7 22.2
2014-Aug-22 15:10 082 0 gusting 2 22.2
2014-Aug-22 15:00 092 1 gusting 4 22.2
2014-Aug-22 14:50 123 1 gusting 6 22.2
2014-Aug-22 14:40 110 2 gusting 6 22.2
2014-Aug-22 14:30 141 3 gusting 6 22.8
2014-Aug-22 14:20 152 2 gusting 6 22.8
2014-Aug-22 14:10 137 3 gusting 6 23.3
2014-Aug-22 14:00 129 4 gusting 8 23.3
2014-Aug-22 13:50 133 3 gusting 7 23.9
2014-Aug-22 13:40 123 3 gusting 7 24.4
2014-Aug-22 13:30 103 3 gusting 7 23.9
2014-Aug-22 13:20 116 3 gusting 6 24.4
2014-Aug-22 13:10 124 2 gusting 6 24.4
2014-Aug-22 13:00 135 3 gusting 6 23.9
2014-Aug-22 12:50 146 0 gusting 4 23.9
2014-Aug-22 12:40 122 0 gusting 2 23.3
2014-Aug-22 12:30 110 1 gusting 3 23.3
2014-Aug-22 12:20 090 1 gusting 3 22.8
2014-Aug-22 12:10 101 1 gusting 3 22.8
2014-Aug-22 12:00 108 2 gusting 4 22.8
2014-Aug-22 11:50 113 2 gusting 5 22.8
2014-Aug-22 11:40 119 0 gusting 7 22.8
2014-Aug-22 11:30 101 1 gusting 6 23.3
2014-Aug-22 11:20 097 1 gusting 3 23.3
2014-Aug-22 11:10 116 1 gusting 4 23.3
2014-Aug-22 11:00 109 1 gusting 6 23.9
2014-Aug-22 10:50 096 1 gusting 5 23.3
2014-Aug-22 10:40 104 1 gusting 4 23.3
2014-Aug-22 10:30 085 1 gusting 4 23.3
2014-Aug-22 10:20 064 1 gusting 3 23.3
2014-Aug-22 10:10 092 1 gusting 4 23.3
2014-Aug-22 10:00 070 1 gusting 4 23.3
2014-Aug-22 09:50 090 1 gusting 5 22.8
2014-Aug-22 09:40 079 0 gusting 3 22.8
2014-Aug-22 09:30 111 0 gusting 2 22.2
2014-Aug-22 09:20 093 0 gusting 1 22.2
2014-Aug-22 09:10 085 0 gusting 3 22.2
2014-Aug-22 09:00 091 22.2
2014-Aug-22 08:50 075 0 gusting 2 22.2
2014-Aug-22 08:40 076 0 gusting 3 22.2
2014-Aug-22 08:30 089 0 gusting 3 22.2
2014-Aug-22 08:20 069 0 gusting 3 21.7
2014-Aug-21 22:40 062 0 gusting 2 21.7
2014-Aug-21 22:30 044 21.7
2014-Aug-21 22:20 043 0 gusting 1 21.7
2014-Aug-21 22:10 042 0 gusting 2 21.7
2014-Aug-21 22:00 039 21.7
2014-Aug-21 21:50 036 0 gusting 2 21.7
2014-Aug-21 21:40 028 21.1
2014-Aug-21 21:30 032 21.1
2014-Aug-21 21:20 041 0 gusting 1 21.1
2014-Aug-21 21:10 064 21.1
2014-Aug-21 21:00 058 0 gusting 1 21.1
2014-Aug-21 20:50 065 21.1
2014-Aug-21 20:40 066 21.1
2014-Aug-21 20:30 066 21.1
2014-Aug-21 20:20 078 21.1
2014-Aug-21 20:10 086 21.1
2014-Aug-21 20:00 111 21.1
2014-Aug-21 19:50 21.1
2014-Aug-21 19:40 104 21.1
2014-Aug-21 19:30 103 0 gusting 2 21.1
2014-Aug-21 19:20 093 1 gusting 3 21.1
2014-Aug-21 19:10 097 0 gusting 3 21.1
2014-Aug-21 19:00 123 0 gusting 1 21.7
2014-Aug-21 18:50 139 0 gusting 3 21.7
2014-Aug-21 18:40 139 0 gusting 2 21.7
2014-Aug-21 18:30 136 1 gusting 3 21.7
2014-Aug-21 18:20 142 0 gusting 3 21.7
2014-Aug-21 18:10 121 1 gusting 3 21.7
2014-Aug-21 18:00 131 1 gusting 3 21.7
2014-Aug-21 17:50 118 0 gusting 3 22.2
2014-Aug-21 17:40 128 0 gusting 3 22.2
2014-Aug-21 17:30 133 0 gusting 2 22.2
2014-Aug-21 17:20 102 0 gusting 3 22.2
2014-Aug-21 17:10 137 0 gusting 3 22.2
2014-Aug-21 17:00 127 1 gusting 4 22.2
2014-Aug-21 16:50 141 1 gusting 3 22.2
2014-Aug-21 16:40 135 1 gusting 4 22.2
2014-Aug-21 16:30 140 1 gusting 4 22.2
2014-Aug-21 16:20 136 2 gusting 5 22.8
2014-Aug-21 16:10 126 2 gusting 6 22.8
2014-Aug-21 16:00 136 3 gusting 6 22.8
2014-Aug-21 15:50 127 2 gusting 5 22.8
2014-Aug-21 15:40 141 3 gusting 6 23.3
2014-Aug-21 15:30 127 1 gusting 4 23.3
2014-Aug-21 15:20 103 2 gusting 6 22.8
2014-Aug-21 15:10 147 0 gusting 3 23.3
2014-Aug-21 15:00 130 1 gusting 3 23.3
2014-Aug-21 14:50 135 2 gusting 5 23.3
2014-Aug-21 14:40 136 1 gusting 5 23.3
2014-Aug-21 14:30 152 0 gusting 5 23.3
2014-Aug-21 14:20 148 2 gusting 6 23.3
2014-Aug-21 14:10 130 1 gusting 5 22.8
2014-Aug-21 14:00 130 2 gusting 6 22.8
2014-Aug-21 13:50 111 2 gusting 5 22.8
2014-Aug-21 13:40 134 2 gusting 5 22.8
2014-Aug-21 13:30 110 1 gusting 4 22.8
2014-Aug-21 13:20 107 2 gusting 5 22.8
2014-Aug-21 13:10 149 2 gusting 5 22.8
2014-Aug-21 13:00 143 2 gusting 5 22.8
2014-Aug-21 12:50 124 2 gusting 6 22.8
2014-Aug-21 12:40 137 2 gusting 6 22.8
2014-Aug-21 12:30 132 2 gusting 7 22.8
2014-Aug-21 12:20 105 1 gusting 5 22.2
2014-Aug-21 12:10 112 2 gusting 5 22.8
2014-Aug-21 12:00 101 2 gusting 6 22.2
2014-Aug-21 11:50 090 1 gusting 4 22.2
2014-Aug-21 11:40 116 2 gusting 7 22.2
2014-Aug-21 11:30 134 1 gusting 4 22.2
2014-Aug-21 11:20 135 3 gusting 6 22.2
2014-Aug-21 11:10 150 2 gusting 4 22.2
2014-Aug-21 11:00 121 2 gusting 6 22.2